This is the latest recevied weather packets stored in our database for station/object OK3MS-5. If no packets are shown the sender has not sent any weather packets the latest 10 day(s).
| Time | Temp. | Humidity | Pressure | Rain* | Wind** | Luminosity | Snow |
|---|---|---|---|---|---|---|---|
| 1777551303 | 12.22° C | 28% | 1028.3 hPa | 0 mm | - | 701 W/m² | - |
| 1777551004 | 11.67° C | 30% | 1028.4 hPa | 0 mm | - | 705 W/m² | - |
| 1777550704 | 11.11° C | 30% | 1028.6 hPa | 0 mm | - | 704 W/m² | - |
| 1777550403 | 11.67° C | 30% | 1028.5 hPa | 0 mm | - | 709 W/m² | - |
| 1777550103 | 11.67° C | 29% | 1028.5 hPa | 0 mm | - | 713 W/m² | - |
| 1777549804 | 11.67° C | 29% | 1028.7 hPa | 0 mm | - | 718 W/m² | - |
| 1777549505 | 11.67° C | 30% | 1028.7 hPa | 0 mm | - | 720 W/m² | - |
| 1777549204 | 11.67° C | 29% | 1028.7 hPa | 0 mm | - | 719 W/m² | - |
| 1777548904 | 11.67° C | 29% | 1028.7 hPa | 0 mm | - | 721 W/m² | - |
| 1777548604 | 11.67° C | 30% | 1028.7 hPa | 0 mm | - | 721 W/m² | - |
| 1777548305 | 11.11° C | 30% | 1028.9 hPa | 0 mm | - | 723 W/m² | - |
| 1777548004 | 10.56° C | 30% | 1029.1 hPa | 0 mm | - | 726 W/m² | - |
| 1777547707 | 10.56° C | 31% | 1029.1 hPa | 0 mm | - | 727 W/m² | - |
| 1777547404 | 11.11° C | 31% | 1029.1 hPa | 0 mm | - | 732 W/m² | - |
| 1777547105 | 10.56° C | 30% | 1029.1 hPa | 0 mm | - | 736 W/m² | - |
| 1777546806 | 10.56° C | 30% | 1029.3 hPa | 0 mm | - | 731 W/m² | - |
| 1777546505 | 10.56° C | 31% | 1029.3 hPa | 0 mm | - | 735 W/m² | - |
| 1777546203 | 10° C | 31% | 1029.5 hPa | 0 mm | - | 736 W/m² | - |
| 1777545908 | 10° C | 29% | 1029.6 hPa | 0 mm | - | 735 W/m² | - |
| 1777545603 | 10° C | 31% | 1029.6 hPa | 0 mm | - | 728 W/m² | - |
| 1777545304 | 9.44° C | 31% | 1029.7 hPa | 0 mm | - | 722 W/m² | - |
| 1777545005 | 9.44° C | 33% | 1029.7 hPa | 0 mm | - | 722 W/m² | - |
| 1777544703 | 10° C | 33% | 1029.6 hPa | 0 mm | - | 723 W/m² | - |
| 1777544405 | 9.44° C | 34% | 1029.8 hPa | 0 mm | - | 716 W/m² | - |
| 1777544105 | 9.44° C | 34% | 1029.9 hPa | 0 mm | - | 710 W/m² | - |
* Rain latest hour (hover to see other rain measurements)
** Current wind speed in m/s (hover to see current wind gust speed)